Time;durP1;ratioP1;P1;durP2;ratioP2;P2;SDS_P1;SDS_P2;PMS_P1;PMS_P2;Temp;Humidity;BMP_temperature;BMP_pressure;BME280_temperature;BME280_humidity;BME280_pressure;Samples;Min_cycle;Max_cycle;Signal;HPM_P1;HPM_P2
2023/04/28 00:01:29;;;;;;;20.67;19.27;;;10.10;14.70;;;;;;2614523;47;20407;-83
2023/04/28 00:03:56;;;;;;;21.00;19.20;;;10.00;16.40;;;;;;2616102;47;20427;-86
2023/04/28 00:06:22;;;;;;;21.10;19.37;;;10.00;16.90;;;;;;2616433;54;20187;-87
2023/04/28 00:08:47;;;;;;;21.33;19.63;;;10.00;18.20;;;;;;2616537;47;20415;-84
2023/04/28 00:11:17;;;;;;;22.03;20.17;;;10.00;22.10;;;;;;2616491;54;20170;-85
2023/04/28 00:13:45;;;;;;;20.97;19.50;;;9.90;30.50;;;;;;2617202;47;20167;-86
2023/04/28 00:16:11;;;;;;;21.40;19.80;;;9.90;34.90;;;;;;2615805;47;20419;-86
2023/04/28 00:18:37;;;;;;;20.87;19.30;;;9.90;37.20;;;;;;2615810;47;20562;-87
2023/04/28 00:21:03;;;;;;;20.97;19.17;;;10.00;42.60;;;;;;2614469;54;20231;-83
2023/04/28 00:23:29;;;;;;;21.77;20.17;;;9.90;40.50;;;;;;2614396;46;20447;-83
2023/04/28 00:25:56;;;;;;;22.10;20.00;;;9.90;42.20;;;;;;2614335;51;20423;-83
2023/04/28 00:28:22;;;;;;;22.40;20.70;;;9.90;55.30;;;;;;2614608;47;20167;-84
2023/04/28 00:30:48;;;;;;;20.73;18.60;;;9.90;44.70;;;;;;2615278;54;20416;-83
2023/04/28 00:33:18;;;;;;;21.13;19.43;;;9.80;53.70;;;;;;2614384;46;20210;-83
2023/04/28 00:35:44;;;;;;;21.20;19.50;;;9.90;46.80;;;;;;2615271;47;20158;-83
2023/04/28 00:38:09;;;;;;;20.43;18.87;;;9.80;48.90;;;;;;2614536;47;20427;-84
2023/04/28 00:40:37;;;;;;;20.77;19.17;;;9.90;46.80;;;;;;2615279;47;20503;-84
2023/04/28 00:43:04;;;;;;;18.57;17.17;;;9.90;56.50;;;;;;2615500;46;20154;-87
2023/04/28 00:45:30;;;;;;;18.70;17.07;;;9.80;59.40;;;;;;2615000;51;20481;-84
2023/04/28 00:47:57;;;;;;;18.77;16.80;;;9.80;76.20;;;;;;2616233;54;20411;-88
2023/04/28 00:50:25;;;;;;;18.97;17.20;;;9.70;91.60;;;;;;2616906;39;20785;-88
2023/04/28 00:52:51;;;;;;;19.47;17.67;;;9.60;97.30;;;;;;2617961;54;20415;-89
2023/04/28 00:55:18;;;;;;;19.43;16.93;;;9.60;99.70;;;;;;2617041;47;20433;-89
2023/04/28 00:57:45;;;;;;;24.70;19.13;;;9.60;99.90;;;;;;2619023;54;20436;-90
2023/04/28 01:00:11;;;;;;;19.83;17.83;;;9.60;99.90;;;;;;2618954;47;20407;-90
2023/04/28 01:02:38;;;;;;;20.07;16.40;;;9.60;99.90;;;;;;2614438;46;20478;-83
2023/04/28 01:08:32;;;;;;;17.67;16.17;;;9.50;99.90;;;;;;2613527;54;20519;-74
2023/04/28 01:14:19;;;;;;;18.00;16.40;;;9.40;99.90;;;;;;2613753;54;20415;-74
2023/04/28 01:20:08;;;;;;;16.30;14.20;;;9.50;99.90;;;;;;2614422;54;20162;-74
2023/04/28 01:25:57;;;;;;;20.20;15.13;;;9.30;99.90;;;;;;2614405;54;20463;-75
2023/04/28 01:31:44;;;;;;;16.93;12.80;;;9.20;99.90;;;;;;2614151;54;20394;-74
2023/04/28 01:34:48;;;;;;;20.23;14.73;;;9.10;99.90;;;;;;2612392;46;20421;-75
2023/04/28 01:37:13;;;;;;;16.60;14.27;;;9.00;99.90;;;;;;2613267;54;20170;-75
2023/04/28 01:43:01;;;;;;;17.13;13.27;;;9.00;99.90;;;;;;2614616;54;20214;-74
2023/04/28 01:48:48;;;;;;;19.13;15.63;;;8.90;99.90;;;;;;2614355;54;20656;-75
2023/04/28 02:01:01;;;;;;;22.50;14.50;;;8.80;99.90;;;;;;2614393;54;20410;-75
2023/04/28 02:04:03;;;;;;;22.90;14.87;;;8.80;99.90;;;;;;2614868;39;20813;-74
2023/04/28 02:06:28;;;;;;;30.23;14.67;;;8.80;99.90;;;;;;2614193;54;20158;-75
2023/04/28 02:12:16;;;;;;;20.23;15.83;;;8.70;99.90;;;;;;2614657;39;20510;-75
2023/04/28 02:18:04;;;;;;;24.50;16.13;;;8.50;99.90;;;;;;2612907;54;20121;-75
2023/04/28 02:23:52;;;;;;;26.63;17.43;;;8.40;99.90;;;;;;2614516;54;20142;-74
2023/04/28 02:29:39;;;;;;;26.97;17.47;;;8.50;99.90;;;;;;2614664;54;20251;-76
2023/04/28 02:35:27;;;;;;;23.53;19.43;;;8.50;99.90;;;;;;2614193;54;20139;-74
2023/04/28 02:41:15;;;;;;;23.73;18.63;;;8.60;99.90;;;;;;2614529;47;20618;-74
2023/04/28 02:47:02;;;;;;;24.27;18.47;;;8.60;99.90;;;;;;2614213;54;20644;-73
2023/04/28 02:52:50;;;;;;;23.50;19.87;;;8.60;99.90;;;;;;2614530;39;20823;-73
2023/04/28 02:58:37;;;;;;;21.67;19.13;;;8.50;99.90;;;;;;2614333;54;20126;-73
2023/04/28 03:08:34;;;;;;;27.70;18.80;;;8.50;99.90;;;;;;2615068;54;20422;-73
2023/04/28 03:14:21;;;;;;;24.20;18.50;;;8.50;99.90;;;;;;2614798;39;20778;-73
2023/04/28 03:20:10;;;;;;;23.90;19.50;;;8.50;99.90;;;;;;2614142;54;20127;-73
2023/04/28 03:25:57;;;;;;;23.87;19.20;;;8.50;99.90;;;;;;2614190;54;20367;-74
2023/04/28 03:31:45;;;;;;;23.60;17.60;;;8.60;99.90;;;;;;2614616;54;20162;-74
2023/04/28 03:37:33;;;;;;;23.97;19.83;;;8.80;99.90;;;;;;2614332;39;20529;-73
2023/04/28 03:43:20;;;;;;;20.43;16.73;;;8.90;99.90;;;;;;2614250;54;20652;-73
2023/04/28 03:49:08;;;;;;;24.30;18.87;;;8.90;99.90;;;;;;2613921;39;20446;-73
2023/04/28 03:54:55;;;;;;;22.60;17.23;;;9.00;99.90;;;;;;2614103;54;20126;-73
2023/04/28 04:00:43;;;;;;;23.30;18.57;;;9.00;99.90;;;;;;2613600;54;20134;-75
2023/04/28 04:06:46;;;;;;;23.07;18.00;;;9.20;99.90;;;;;;2612316;54;20147;-74
2023/04/28 04:12:33;;;;;;;21.30;14.53;;;9.70;99.90;;;;;;2612761;54;20227;-74
2023/04/28 04:18:21;;;;;;;18.87;16.43;;;9.80;99.90;;;;;;2612031;54;20218;-74
2023/04/28 04:24:08;;;;;;;16.30;14.37;;;9.90;99.90;;;;;;2613077;54;20254;-75
2023/04/28 04:29:54;;;;;;;19.93;15.13;;;10.00;99.90;;;;;;2613415;54;20612;-74
2023/04/28 04:35:41;;;;;;;15.33;13.60;;;10.00;99.90;;;;;;2613091;54;20146;-74
2023/04/28 04:41:29;;;;;;;20.10;14.07;;;10.00;99.90;;;;;;2613550;54;20118;-75
2023/04/28 04:47:16;;;;;;;18.23;16.43;;;10.10;99.90;;;;;;2614966;39;20522;-74
2023/04/28 04:53:04;;;;;;;17.77;13.97;;;10.00;99.90;;;;;;2613540;54;20158;-74
2023/04/28 04:58:52;;;;;;;16.23;14.60;;;10.10;99.90;;;;;;2614589;54;20166;-75
2023/04/28 05:14:56;;;;;;;17.33;14.57;;;10.00;99.90;;;;;;2612227;54;20945;-73
2023/04/28 05:20:43;;;;;;;18.50;13.93;;;9.90;99.90;;;;;;2613060;54;20613;-73
2023/04/28 05:26:30;;;;;;;16.10;14.33;;;9.90;99.90;;;;;;2611105;54;20138;-73
2023/04/28 05:32:18;;;;;;;18.37;14.20;;;9.90;99.90;;;;;;2613303;54;20134;-73
2023/04/28 05:38:05;;;;;;;17.60;13.50;;;9.90;99.90;;;;;;2609747;54;20667;-73
2023/04/28 05:43:52;;;;;;;17.87;14.17;;;9.90;99.90;;;;;;2612110;54;20962;-73
2023/04/28 05:49:40;;;;;;;16.90;15.10;;;10.00;99.90;;;;;;2612539;54;20616;-73
2023/04/28 05:55:28;;;;;;;17.47;15.53;;;10.20;99.90;;;;;;2611319;39;20640;-74
2023/04/28 06:01:16;;;;;;;16.43;14.73;;;10.30;99.90;;;;;;2613699;54;20126;-74
2023/04/28 06:07:24;;;;;;;16.60;14.33;;;10.20;99.90;;;;;;2611691;54;20412;-74
2023/04/28 06:13:11;;;;;;;15.03;13.43;;;10.30;99.90;;;;;;2612769;54;20322;-74
2023/04/28 06:18:58;;;;;;;15.60;14.07;;;10.30;99.90;;;;;;2612417;31;20728;-73
2023/04/28 06:28:07;;;;;;;18.40;14.30;;;10.20;99.90;;;;;;2610208;54;20420;-74
2023/04/28 06:33:54;;;;;;;19.60;15.70;;;10.30;99.90;;;;;;2610340;54;20134;-72
2023/04/28 06:39:42;;;;;;;15.70;14.07;;;10.70;99.90;;;;;;2612097;54;20178;-73
2023/04/28 06:45:29;;;;;;;16.60;13.43;;;11.30;99.90;;;;;;2613694;54;20127;-73
2023/04/28 06:51:17;;;;;;;15.63;14.23;;;11.50;99.90;;;;;;2613185;54;20170;-73
2023/04/28 06:57:04;;;;;;;13.50;12.33;;;11.60;99.90;;;;;;2612958;54;20155;-73
2023/04/28 07:02:52;;;;;;;15.00;13.47;;;11.70;99.90;;;;;;2611843;54;20224;-74
2023/04/28 07:08:41;;;;;;;14.50;13.07;;;11.90;99.90;;;;;;2613133;54;20680;-73
2023/04/28 07:14:28;;;;;;;14.43;13.13;;;12.20;99.90;;;;;;2614565;54;20134;-73
2023/04/28 07:20:16;;;;;;;13.70;12.40;;;12.70;99.90;;;;;;2614371;54;20174;-73
2023/04/28 07:26:05;;;;;;;13.67;12.57;;;13.00;99.90;;;;;;2614413;54;20679;-73
2023/04/28 07:31:53;;;;;;;16.10;11.70;;;13.10;99.90;;;;;;2613860;54;20394;-73
2023/04/28 07:37:41;;;;;;;14.37;12.90;;;14.50;99.90;;;;;;2615089;54;20624;-74
2023/04/28 07:43:29;;;;;;;13.50;12.20;;;14.70;99.90;;;;;;2613976;54;20222;-74
2023/04/28 07:49:16;;;;;;;12.73;11.50;;;14.70;99.90;;;;;;2613497;54;20383;-74
2023/04/28 07:55:05;;;;;;;11.57;10.60;;;13.90;99.90;;;;;;2614408;54;20643;-74
2023/04/28 08:00:52;;;;;;;10.33;9.53;;;13.80;99.90;;;;;;2612483;54;20378;-73
2023/04/28 08:04:02;;;;;;;10.30;9.50;;;14.10;99.90;;;;;;2613305;47;20555;-74
2023/04/28 08:06:28;;;;;;;11.00;10.00;;;14.60;99.90;;;;;;2614592;54;20143;-75
2023/04/28 08:12:17;;;;;;;11.30;10.20;;;14.40;99.90;;;;;;2614817;54;20127;-74
2023/04/28 08:18:04;;;;;;;10.03;9.13;;;14.50;99.90;;;;;;2614008;54;20367;-75
2023/04/28 08:23:52;;;;;;;9.83;8.93;;;14.70;99.90;;;;;;2613027;54;20134;-74
2023/04/28 08:29:39;;;;;;;13.73;9.27;;;14.40;99.90;;;;;;2614137;54;20158;-74
2023/04/28 08:35:28;;;;;;;9.93;9.13;;;14.80;99.90;;;;;;2612149;54;20118;-74
2023/04/28 08:41:16;;;;;;;10.00;9.13;;;15.30;99.90;;;;;;2614721;54;20355;-74
2023/04/28 08:47:11;;;;;;;10.37;9.37;;;15.80;99.90;;;;;;2614037;54;20419;-73
2023/04/28 08:53:03;;;;;;;10.80;9.40;;;15.50;99.90;;;;;;2612362;54;20443;-74
2023/04/28 08:58:52;;;;;;;10.57;9.67;;;15.40;99.90;;;;;;2613143;54;20363;-74
2023/04/28 09:08:30;;;;;;;10.30;9.50;;;15.50;99.90;;;;;;2614209;54;20459;-73
2023/04/28 09:14:18;;;;;;;11.83;10.73;;;15.30;99.90;;;;;;2614266;54;20522;-73
2023/04/28 09:26:50;;;;;;;12.00;10.70;;;15.60;99.90;;;;;;2612414;54;20419;-74
2023/04/28 09:32:37;;;;;;;11.20;10.10;;;15.60;99.90;;;;;;2614640;31;20860;-74
2023/04/28 09:38:25;;;;;;;10.20;9.10;;;15.60;99.90;;;;;;2614722;54;20211;-74
2023/04/28 09:44:17;;;;;;;10.77;9.90;;;15.60;99.90;;;;;;2614798;54;20130;-74
2023/04/28 09:50:08;;;;;;;11.40;10.50;;;15.30;99.90;;;;;;2613038;54;20896;-73
2023/04/28 09:55:57;;;;;;;14.27;11.87;;;15.40;99.90;;;;;;2613614;54;20360;-74
2023/04/28 10:01:45;;;;;;;11.87;10.87;;;16.10;99.90;;;;;;2613042;54;20431;-75
2023/04/28 10:10:55;;;;;;;9.77;8.93;;;16.60;99.90;;;;;;2613063;54;20503;-74
2023/04/28 10:16:43;;;;;;;11.03;8.63;;;16.30;99.90;;;;;;2612473;54;20495;-75
2023/04/28 10:29:07;;;;;;;12.80;11.50;;;16.40;99.90;;;;;;2610273;54;20967;-73
2023/04/28 10:41:40;;;;;;;13.80;12.50;;;16.20;99.90;;;;;;2613379;54;20371;-74
2023/04/28 10:47:34;;;;;;;11.87;10.63;;;15.90;99.90;;;;;;2612854;54;20399;-74
2023/04/28 11:00:27;;;;;;;13.27;10.70;;;15.20;99.90;;;;;;2611139;46;20419;-74
2023/04/28 11:06:22;;;;;;;10.07;9.17;;;15.40;99.90;;;;;;2612935;54;20414;-74
2023/04/28 11:12:10;;;;;;;15.93;10.90;;;14.80;99.90;;;;;;2612832;54;20387;-75
2023/04/28 11:18:01;;;;;;;13.00;11.70;;;14.80;99.90;;;;;;2613385;54;20155;-74
2023/04/28 11:23:50;;;;;;;13.77;12.33;;;14.90;99.90;;;;;;2614510;54;20940;-75
2023/04/28 11:29:39;;;;;;;12.50;11.20;;;14.60;99.90;;;;;;2613882;54;20674;-75
2023/04/28 11:42:10;;;;;;;13.47;12.10;;;14.70;99.90;;;;;;2614401;54;20367;-74
2023/04/28 11:48:04;;;;;;;15.73;13.87;;;14.90;99.90;;;;;;2613725;54;21422;-73
2023/04/28 11:53:52;;;;;;;13.57;12.20;;;15.50;99.90;;;;;;2613633;54;20383;-74
2023/04/28 11:59:39;;;;;;;16.67;15.07;;;15.70;99.90;;;;;;2614039;54;20157;-75
2023/04/28 12:05:27;;;;;;;19.10;17.20;;;15.50;99.90;;;;;;2615022;54;20142;-75
2023/04/28 12:11:16;;;;;;;18.13;16.33;;;15.90;99.90;;;;;;2614414;54;20173;-74
2023/04/28 12:14:34;;;;;;;18.20;15.73;;;15.60;99.90;;;;;;2613321;47;20427;-73
2023/04/28 12:20:35;;;;;;;16.00;14.50;;;16.10;99.90;;;;;;2611582;54;20406;-74
2023/04/28 12:23:33;;;;;;;16.03;13.27;;;16.00;99.90;;;;;;2611249;54;20442;-75
2023/04/28 12:26:02;;;;;;;14.70;13.30;;;16.00;99.90;;;;;;2612766;54;20930;-74
2023/04/28 12:31:51;;;;;;;16.17;14.57;;;16.00;99.90;;;;;;2614003;54;20494;-74
2023/04/28 12:37:40;;;;;;;15.00;13.47;;;15.70;99.90;;;;;;2614773;54;20382;-74
2023/04/28 12:43:28;;;;;;;19.80;16.60;;;15.70;99.90;;;;;;2614862;54;20399;-74
2023/04/28 12:49:16;;;;;;;17.33;15.60;;;16.00;99.90;;;;;;2612599;54;20511;-74
2023/04/28 12:55:04;;;;;;;19.00;17.13;;;16.80;99.90;;;;;;2612701;54;20155;-75
2023/04/28 13:00:52;;;;;;;20.17;18.37;;;16.90;99.90;;;;;;2613233;39;20945;-75
2023/04/28 13:06:42;;;;;;;19.97;18.27;;;18.40;99.90;;;;;;2614415;39;20512;-74
2023/04/28 13:10:03;;;;;;;17.27;15.87;;;18.00;99.90;;;;;;2614189;39;20860;-74
2023/04/28 13:12:28;;;;;;;18.30;16.63;;;18.30;99.90;;;;;;2614348;54;20946;-74
2023/04/28 13:18:16;;;;;;;18.30;16.87;;;18.20;99.90;;;;;;2614517;46;20134;-74
2023/04/28 13:24:04;;;;;;;15.93;14.70;;;19.20;99.90;;;;;;2614552;54;20233;-73
2023/04/28 13:27:08;;;;;;;16.80;15.60;;;20.20;99.90;;;;;;2614788;54;21075;-75
2023/04/28 13:29:35;;;;;;;15.77;14.57;;;19.20;99.90;;;;;;2614610;46;20415;-74
2023/04/28 13:35:23;;;;;;;17.37;15.87;;;18.70;99.90;;;;;;2614944;54;20919;-74
2023/04/28 13:41:10;;;;;;;15.17;14.07;;;18.30;99.90;;;;;;2614839;54;20395;-74
2023/04/28 13:46:58;;;;;;;16.63;15.27;;;19.50;99.90;;;;;;2614647;54;20158;-74
2023/04/28 13:52:46;;;;;;;16.37;15.27;;;19.90;99.90;;;;;;2613048;54;20208;-74
2023/04/28 13:58:34;;;;;;;15.70;14.57;;;19.10;99.90;;;;;;2613067;54;20166;-74
2023/04/28 14:04:21;;;;;;;14.17;13.00;;;18.50;99.90;;;;;;2614199;54;20130;-74
2023/04/28 14:16:53;;;;;;;15.73;14.43;;;18.10;99.90;;;;;;2613958;54;20398;-74
2023/04/28 14:22:41;;;;;;;13.97;13.00;;;18.20;99.90;;;;;;2614804;46;20173;-72
2023/04/28 14:28:28;;;;;;;15.80;14.60;;;19.60;99.90;;;;;;2613404;54;20138;-74
2023/04/28 14:34:16;;;;;;;17.63;16.40;;;19.90;99.90;;;;;;2613972;54;20157;-74
2023/04/28 14:40:04;;;;;;;16.17;14.77;;;18.70;99.90;;;;;;2614302;54;20278;-74
2023/04/28 14:45:52;;;;;;;14.80;13.60;;;18.70;99.90;;;;;;2614758;54;20356;-73
2023/04/28 14:51:39;;;;;;;14.67;13.47;;;18.20;99.90;;;;;;2614379;54;20138;-74
2023/04/28 14:57:27;;;;;;;14.57;13.17;;;17.90;99.90;;;;;;2614931;54;20165;-74
2023/04/28 15:03:15;;;;;;;15.30;13.90;;;18.20;99.90;;;;;;2613679;54;20158;-74
2023/04/28 15:09:03;;;;;;;16.13;14.87;;;18.20;99.90;;;;;;2613965;54;20138;-75
2023/04/28 15:14:52;;;;;;;17.60;16.10;;;17.90;99.90;;;;;;2614483;54;20230;-74
2023/04/28 15:20:40;;;;;;;18.57;16.87;;;17.40;99.90;;;;;;2615306;46;20386;-74
2023/04/28 15:26:28;;;;;;;17.53;16.03;;;17.70;99.90;;;;;;2614877;54;20122;-74
2023/04/28 15:32:16;;;;;;;14.30;13.13;;;17.50;99.90;;;;;;2615445;54;20388;-74
2023/04/28 15:38:04;;;;;;;12.60;11.60;;;17.60;99.90;;;;;;2615308;39;20779;-74
2023/04/28 15:43:51;;;;;;;13.43;12.07;;;16.90;99.90;;;;;;2611930;54;20130;-74
2023/04/28 15:49:39;;;;;;;12.37;11.17;;;16.30;99.90;;;;;;2612442;54;20243;-75
2023/04/28 15:55:27;;;;;;;13.07;11.77;;;16.00;99.90;;;;;;2614527;54;20957;-74
2023/04/28 16:01:15;;;;;;;14.23;12.83;;;15.70;99.90;;;;;;2614482;54;20295;-75
2023/04/28 16:07:03;;;;;;;12.17;11.17;;;15.80;99.90;;;;;;2614464;39;20532;-75
2023/04/28 16:10:03;;;;;;;13.90;12.53;;;15.70;99.90;;;;;;2614230;39;20470;-74
2023/04/28 16:12:30;;;;;;;13.17;11.97;;;16.00;99.90;;;;;;2614307;54;20427;-75
2023/04/28 16:18:18;;;;;;;12.10;11.10;;;16.70;99.90;;;;;;2614475;54;20383;-75
2023/04/28 16:24:06;;;;;;;11.10;10.10;;;16.70;99.90;;;;;;2614796;54;20127;-75
2023/04/28 16:29:55;;;;;;;11.80;10.80;;;16.20;99.90;;;;;;2614730;54;20382;-74
2023/04/28 16:35:43;;;;;;;11.73;10.20;;;16.30;99.90;;;;;;2614804;54;20364;-75
2023/04/28 16:41:31;;;;;;;12.27;11.10;;;16.80;99.90;;;;;;2615128;54;20354;-75
2023/04/28 16:47:20;;;;;;;12.67;11.53;;;16.90;99.90;;;;;;2614593;54;20118;-75
2023/04/28 16:53:07;;;;;;;11.17;10.27;;;16.50;99.90;;;;;;2615263;39;20726;-75
2023/04/28 16:58:55;;;;;;;10.17;9.27;;;16.20;99.90;;;;;;2615333;39;20496;-75
2023/04/28 17:04:43;;;;;;;9.90;9.00;;;16.10;99.90;;;;;;2614663;54;20339;-75
2023/04/28 17:14:30;;;;;;;8.83;8.03;;;15.80;99.90;;;;;;2615445;39;20759;-75
2023/04/28 17:20:19;;;;;;;7.63;7.03;;;15.50;99.90;;;;;;2614840;39;21335;-75
2023/04/28 17:26:06;;;;;;;8.03;7.23;;;15.40;99.90;;;;;;2614372;54;20355;-74
2023/04/28 17:31:54;;;;;;;8.53;7.67;;;15.50;99.90;;;;;;2614669;54;20134;-74
2023/04/28 17:37:41;;;;;;;10.50;9.47;;;15.30;99.90;;;;;;2615007;39;20521;-76
2023/04/28 17:43:29;;;;;;;9.30;8.50;;;15.40;99.90;;;;;;2614969;54;20157;-75
2023/04/28 17:49:17;;;;;;;9.83;8.80;;;15.40;99.90;;;;;;2614625;54;20237;-74
2023/04/28 17:55:05;;;;;;;10.47;9.67;;;15.20;99.90;;;;;;2614990;46;20657;-75
2023/04/28 18:01:03;;;;;;;10.70;9.60;;;15.20;99.90;;;;;;2614213;54;21743;-75
2023/04/28 18:06:51;;;;;;;10.60;9.50;;;15.20;99.90;;;;;;2613926;39;21187;-75
2023/04/28 18:10:03;;;;;;;13.10;11.83;;;15.20;99.90;;;;;;2612826;54;20415;-74
2023/04/28 18:12:28;;;;;;;11.97;10.87;;;15.20;99.90;;;;;;2614694;54;20156;-74
2023/04/28 18:18:16;;;;;;;11.87;10.70;;;15.00;99.90;;;;;;2613529;54;20759;-74
2023/04/28 18:24:04;;;;;;;12.47;11.17;;;14.90;99.90;;;;;;2614344;54;20129;-76
2023/04/28 18:29:51;;;;;;;12.87;11.53;;;14.50;99.90;;;;;;2614278;54;20222;-75
2023/04/28 18:35:39;;;;;;;11.30;10.10;;;14.30;99.90;;;;;;2613917;39;20541;-75
2023/04/28 18:41:27;;;;;;;14.03;12.07;;;14.20;99.90;;;;;;2614460;54;20407;-76
2023/04/28 18:47:15;;;;;;;13.10;10.83;;;14.20;99.90;;;;;;2612917;54;20154;-75
2023/04/28 18:53:03;;;;;;;14.63;9.70;;;14.20;99.90;;;;;;2613841;54;20154;-74
2023/04/28 18:58:50;;;;;;;13.40;12.10;;;14.20;99.90;;;;;;2613018;54;21008;-74
2023/04/28 19:04:40;;;;;;;15.67;11.97;;;14.30;99.90;;;;;;2607710;54;20134;-75
2023/04/28 19:14:32;;;;;;;13.60;12.20;;;14.40;99.90;;;;;;2608856;54;20426;-74
2023/04/28 19:20:20;;;;;;;13.53;10.40;;;14.40;99.90;;;;;;2612898;54;21039;-74
2023/04/28 19:26:08;;;;;;;12.90;10.17;;;14.40;99.90;;;;;;2611473;54;20522;-75
2023/04/28 19:29:15;;;;;;;11.40;10.30;;;14.40;99.90;;;;;;2611372;39;20808;-75
2023/04/28 19:38:15;;;;;;;12.83;11.53;;;14.40;99.90;;;;;;2608885;54;20362;-76
2023/04/28 19:44:03;;;;;;;12.60;11.30;;;14.20;99.90;;;;;;2613059;54;20395;-76
2023/04/28 19:49:51;;;;;;;13.60;12.20;;;13.90;99.90;;;;;;2613456;54;20130;-74
2023/04/28 19:55:39;;;;;;;15.33;12.70;;;13.80;99.90;;;;;;2611416;54;20426;-74
2023/04/28 20:01:27;;;;;;;15.57;13.00;;;13.80;99.90;;;;;;2613541;54;20153;-74
2023/04/28 20:07:15;;;;;;;17.30;12.17;;;13.90;99.90;;;;;;2611697;46;20166;-74
2023/04/28 20:13:02;;;;;;;15.10;13.50;;;14.00;99.90;;;;;;2612464;54;20137;-74
2023/04/28 20:18:50;;;;;;;15.50;12.37;;;14.00;99.90;;;;;;2611374;39;20551;-75
2023/04/28 20:24:38;;;;;;;14.40;12.73;;;14.10;99.90;;;;;;2613275;54;20134;-75
2023/04/28 20:30:26;;;;;;;16.80;14.77;;;14.10;99.90;;;;;;2613954;39;20540;-76
2023/04/28 20:36:14;;;;;;;18.80;15.10;;;14.10;99.90;;;;;;2611869;54;20375;-74
2023/04/28 20:42:02;;;;;;;17.10;14.47;;;13.90;99.90;;;;;;2613323;54;20431;-75
2023/04/28 20:47:50;;;;;;;16.10;14.40;;;13.80;99.90;;;;;;2613216;54;20153;-74
2023/04/28 20:53:38;;;;;;;18.77;15.37;;;13.70;99.90;;;;;;2614376;54;20146;-76
2023/04/28 20:59:26;;;;;;;16.63;14.00;;;13.40;99.90;;;;;;2614293;54;20961;-75
2023/04/28 21:05:16;;;;;;;19.47;14.93;;;13.30;99.90;;;;;;2612582;54;20129;-75
2023/04/28 21:11:09;;;;;;;18.40;15.13;;;13.20;99.90;;;;;;2614321;54;20371;-74
2023/04/28 21:16:57;;;;;;;16.80;13.30;;;13.20;99.90;;;;;;2614520;54;20912;-75
2023/04/28 21:22:48;;;;;;;19.17;14.57;;;13.20;99.90;;;;;;2612349;39;20529;-75
2023/04/28 21:28:36;;;;;;;25.13;17.70;;;13.20;99.90;;;;;;2612935;54;20435;-75
2023/04/28 21:37:46;;;;;;;24.60;19.60;;;13.20;99.90;;;;;;2612440;39;21072;-75
2023/04/28 21:43:34;;;;;;;29.37;22.30;;;13.20;99.90;;;;;;2613084;54;20391;-75
2023/04/28 21:49:21;;;;;;;27.80;20.53;;;13.20;99.90;;;;;;2612853;47;20613;-74
2023/04/28 21:55:09;;;;;;;26.00;19.47;;;13.20;99.90;;;;;;2612369;54;20700;-75
2023/04/28 22:01:01;;;;;;;25.83;18.50;;;13.30;99.90;;;;;;2613147;54;20134;-75
2023/04/28 22:06:49;;;;;;;17.27;13.40;;;13.20;99.90;;;;;;2613801;54;20935;-75
2023/04/28 22:12:38;;;;;;;16.77;13.53;;;13.10;99.90;;;;;;2613053;54;20125;-76
2023/04/28 22:18:27;;;;;;;18.80;14.40;;;13.10;99.90;;;;;;2612794;54;20515;-74
2023/04/28 22:30:39;;;;;;;18.33;14.30;;;13.00;99.90;;;;;;2613860;54;20414;-75
2023/04/28 22:33:14;;;;;;;17.23;13.40;;;12.90;99.90;;;;;;2612576;54;20404;-74
2023/04/28 22:35:39;;;;;;;17.87;14.27;;;12.80;99.90;;;;;;2614620;54;20134;-75
2023/04/28 22:41:27;;;;;;;17.70;13.53;;;12.70;99.90;;;;;;2613228;54;20126;-75
2023/04/28 22:47:15;;;;;;;22.47;15.67;;;12.60;99.90;;;;;;2613685;54;20174;-74
2023/04/28 22:53:03;;;;;;;24.27;16.73;;;12.60;99.90;;;;;;2613976;54;20391;-75
2023/04/28 22:58:51;;;;;;;17.67;14.27;;;12.60;99.90;;;;;;2613267;54;20163;-75
2023/04/28 23:04:39;;;;;;;20.13;14.47;;;12.50;99.90;;;;;;2611448;39;20524;-76
2023/04/28 23:10:27;;;;;;;21.07;15.10;;;12.40;99.90;;;;;;2613620;54;20453;-75
2023/04/28 23:16:15;;;;;;;23.50;13.80;;;12.40;99.90;;;;;;2613955;54;20126;-75
2023/04/28 23:22:06;;;;;;;21.10;16.07;;;12.30;99.90;;;;;;2614664;54;20432;-75
2023/04/28 23:27:53;;;;;;;20.97;15.93;;;12.20;99.90;;;;;;2614977;54;20591;-75
2023/04/28 23:37:40;;;;;;;25.23;18.53;;;12.10;99.90;;;;;;2615464;39;20816;-75
2023/04/28 23:43:28;;;;;;;26.17;20.10;;;12.10;99.90;;;;;;2614690;54;20968;-75
2023/04/28 23:49:16;;;;;;;29.67;20.00;;;12.10;99.90;;;;;;2614662;54;20130;-74
2023/04/28 23:55:04;;;;;;;29.83;19.83;;;12.10;99.90;;;;;;2612912;39;20523;-75
